createdAt,value
2022-11-20T00:00:09.817Z,19.67
2022-11-20T00:02:36.966Z,21.25
2022-11-20T00:05:04.209Z,22.67
2022-11-20T00:07:31.468Z,22.05
2022-11-20T00:09:58.779Z,19.13
2022-11-20T00:12:25.949Z,13.82
2022-11-20T00:14:53.176Z,23.42
2022-11-20T00:17:20.465Z,12.77
2022-11-20T00:19:47.696Z,11.73
2022-11-20T00:22:14.873Z,12.27
2022-11-20T00:24:43.242Z,21.27
2022-11-20T00:27:10.586Z,21.67
2022-11-20T00:29:37.777Z,18.63
2022-11-20T00:32:05.004Z,19.35
2022-11-20T00:34:32.188Z,16.73
2022-11-20T00:36:59.356Z,15.00
2022-11-20T00:39:26.612Z,11.63
2022-11-20T00:41:53.791Z,16.20
2022-11-20T00:44:21.037Z,13.18
2022-11-20T00:46:48.218Z,15.25
2022-11-20T00:49:15.560Z,8.13
2022-11-20T00:51:42.706Z,21.90
2022-11-20T00:54:09.935Z,19.05
2022-11-20T00:56:37.143Z,18.80
2022-11-20T00:59:04.266Z,13.35
2022-11-20T01:01:31.576Z,21.35
2022-11-20T01:03:58.828Z,15.88
2022-11-20T01:06:26.033Z,15.20
2022-11-20T01:08:53.176Z,20.30
2022-11-20T01:11:20.685Z,8.70
2022-11-20T01:13:47.862Z,13.00
2022-11-20T01:16:15.072Z,14.82
2022-11-20T01:18:42.315Z,11.93
2022-11-20T01:21:09.541Z,16.00
2022-11-20T01:23:36.673Z,13.40
2022-11-20T01:26:03.955Z,13.38
2022-11-20T01:28:31.084Z,12.63
2022-11-20T01:30:58.328Z,9.68
2022-11-20T01:33:25.505Z,15.50
2022-11-20T01:35:52.703Z,15.82
2022-11-20T01:38:21.055Z,17.85
2022-11-20T01:40:48.313Z,9.85
2022-11-20T01:43:21.560Z,17.63
2022-11-20T01:45:48.810Z,12.50
2022-11-20T01:48:15.967Z,16.65
2022-11-20T01:50:43.152Z,16.33
2022-11-20T01:53:10.324Z,10.38
2022-11-20T01:55:37.595Z,15.07
2022-11-20T01:58:04.772Z,8.98
2022-11-20T02:00:32.040Z,14.77
2022-11-20T02:02:59.191Z,12.40
2022-11-20T02:05:26.407Z,9.98
2022-11-20T02:07:53.828Z,18.42
2022-11-20T02:10:21.098Z,12.85
2022-11-20T02:13:06.991Z,10.98
2022-11-20T02:15:34.240Z,10.32
2022-11-20T02:18:01.371Z,8.40
2022-11-20T02:20:28.611Z,14.68
2022-11-20T02:22:55.759Z,16.02
2022-11-20T02:25:23.033Z,18.38
2022-11-20T02:27:50.212Z,11.27
2022-11-20T02:30:17.384Z,11.55
2022-11-20T02:32:44.542Z,15.45
2022-11-20T02:35:11.804Z,13.85
2022-11-20T02:37:38.925Z,15.60
2022-11-20T02:40:06.130Z,9.18
2022-11-20T02:42:33.302Z,11.52
2022-11-20T02:45:00.501Z,10.65
2022-11-20T02:47:27.739Z,10.27
2022-11-20T02:49:54.943Z,11.73
2022-11-20T02:52:22.123Z,13.73
2022-11-20T02:54:49.324Z,9.82
2022-11-20T02:57:16.521Z,12.50
2022-11-20T02:59:43.684Z,19.77
2022-11-20T03:02:10.911Z,15.65
2022-11-20T03:04:38.097Z,13.30
2022-11-20T03:07:05.357Z,13.60
2022-11-20T03:09:32.561Z,11.75
2022-11-20T03:11:59.832Z,14.05
2022-11-20T03:14:26.974Z,13.65
2022-11-20T03:16:54.216Z,6.50
2022-11-20T03:19:21.575Z,16.00
2022-11-20T03:21:48.863Z,4.25
2022-11-20T03:24:16.054Z,12.27
2022-11-20T03:26:43.261Z,14.40
2022-11-20T03:29:10.470Z,11.38
2022-11-20T03:31:37.703Z,7.68
2022-11-20T03:34:04.872Z,7.28
2022-11-20T03:36:32.102Z,12.27
2022-11-20T03:38:59.380Z,7.85
2022-11-20T03:41:26.682Z,11.18
2022-11-20T03:43:53.927Z,15.38
2022-11-20T03:46:21.129Z,16.15
2022-11-20T03:48:51.542Z,15.55
2022-11-20T03:51:19.259Z,14.60
2022-11-20T03:53:46.408Z,7.20
2022-11-20T03:56:13.616Z,8.45
2022-11-20T03:58:40.847Z,9.23
2022-11-20T04:01:08.137Z,8.60
2022-11-20T04:03:35.305Z,6.32
2022-11-20T04:06:02.513Z,18.98
2022-11-20T04:08:29.701Z,11.70
2022-11-20T04:10:56.908Z,11.00
2022-11-20T04:13:24.056Z,15.65
2022-11-20T04:15:51.281Z,11.88
2022-11-20T04:18:18.421Z,11.30
2022-11-20T04:20:45.654Z,11.75
2022-11-20T04:23:12.832Z,10.50
2022-11-20T04:25:40.051Z,10.98
2022-11-20T04:28:07.182Z,13.10
2022-11-20T04:30:34.420Z,14.02
2022-11-20T04:33:01.554Z,17.38
2022-11-20T04:35:28.771Z,8.60
2022-11-20T04:37:55.999Z,18.60
2022-11-20T04:40:23.283Z,16.88
2022-11-20T04:42:50.448Z,9.90
2022-11-20T04:45:17.664Z,14.95
2022-11-20T04:47:44.838Z,18.25
2022-11-20T04:50:12.077Z,9.02
2022-11-20T04:52:39.262Z,15.88
2022-11-20T04:55:06.479Z,9.85
2022-11-20T04:57:33.603Z,18.00
2022-11-20T05:00:00.811Z,12.98
2022-11-20T05:02:28.168Z,21.17
2022-11-20T05:04:55.441Z,15.82
2022-11-20T05:07:22.724Z,15.13
2022-11-20T05:09:49.975Z,12.50
2022-11-20T05:12:17.160Z,9.20
2022-11-20T05:14:44.395Z,9.93
2022-11-20T05:17:11.573Z,10.27
2022-11-20T05:19:38.939Z,11.10
2022-11-20T05:22:06.386Z,13.65
2022-11-20T05:24:33.630Z,12.43
2022-11-20T05:27:00.774Z,8.38
2022-11-20T05:29:28.007Z,9.15
2022-11-20T05:31:55.172Z,7.72
2022-11-20T05:34:22.374Z,9.23
2022-11-20T05:36:49.597Z,10.25
2022-11-20T05:39:16.839Z,13.27
2022-11-20T05:41:43.970Z,6.18
2022-11-20T05:44:11.202Z,11.38
2022-11-20T05:46:38.367Z,19.17
2022-11-20T05:49:05.579Z,12.70
2022-11-20T05:51:32.756Z,6.68
2022-11-20T05:53:59.973Z,10.20
2022-11-20T05:56:27.149Z,5.45
2022-11-20T05:58:54.450Z,9.18
2022-11-20T06:01:21.663Z,13.20
2022-11-20T06:03:48.976Z,9.07
2022-11-20T06:06:16.166Z,13.82
2022-11-20T06:08:43.461Z,8.65
2022-11-20T06:11:10.600Z,6.90
2022-11-20T06:13:41.857Z,8.35
2022-11-20T06:16:09.644Z,9.57
2022-11-20T06:18:36.776Z,6.88
2022-11-20T06:21:04.044Z,5.78
2022-11-20T06:23:31.260Z,10.35
2022-11-20T06:25:58.519Z,13.45
2022-11-20T06:28:25.761Z,14.77
2022-11-20T06:30:53.014Z,10.35
2022-11-20T06:33:20.163Z,12.50
2022-11-20T06:35:47.364Z,11.60
2022-11-20T06:38:14.653Z,12.70
2022-11-20T06:40:41.837Z,12.68
2022-11-20T06:43:09.065Z,13.02
2022-11-20T06:45:36.217Z,16.55
2022-11-20T06:48:03.459Z,12.80
2022-11-20T06:50:30.627Z,15.80
2022-11-20T06:52:57.835Z,9.07
2022-11-20T06:55:25.065Z,14.15
2022-11-20T06:57:55.841Z,12.18
2022-11-20T07:00:23.253Z,6.25
2022-11-20T07:02:50.903Z,11.60
2022-11-20T07:05:18.100Z,10.07
2022-11-20T07:07:45.316Z,7.90
2022-11-20T07:10:12.619Z,8.55
2022-11-20T07:12:39.846Z,7.20
2022-11-20T07:15:06.992Z,8.02
2022-11-20T07:17:34.240Z,9.80
2022-11-20T07:20:01.453Z,11.15
2022-11-20T07:22:28.718Z,7.45
2022-11-20T07:24:55.963Z,5.75
2022-11-20T07:27:23.181Z,4.68
2022-11-20T07:29:50.389Z,6.30
2022-11-20T07:32:17.723Z,8.80
2022-11-20T07:34:44.925Z,7.38
2022-11-20T07:37:12.140Z,4.93
2022-11-20T07:39:39.314Z,4.45
2022-11-20T07:42:06.666Z,5.85
2022-11-20T07:44:33.836Z,13.40
2022-11-20T07:47:01.121Z,5.78
2022-11-20T07:49:28.294Z,5.88
2022-11-20T07:51:58.307Z,3.28
2022-11-20T07:54:28.998Z,7.15
2022-11-20T07:56:56.183Z,1.52
2022-11-20T07:59:23.703Z,6.82
2022-11-20T08:01:51.106Z,4.63
2022-11-20T08:04:18.294Z,4.95
2022-11-20T08:06:45.457Z,3.53
2022-11-20T08:09:12.708Z,2.25
2022-11-20T08:11:58.790Z,2.67
2022-11-20T08:14:26.066Z,3.05
2022-11-20T08:16:53.220Z,2.55
2022-11-20T08:19:20.774Z,5.18
2022-11-20T08:21:48.245Z,3.22
2022-11-20T08:24:15.487Z,4.93
2022-11-20T08:26:42.694Z,6.47
2022-11-20T08:29:09.950Z,6.43
2022-11-20T08:31:37.186Z,6.18
2022-11-20T08:34:09.013Z,3.75
2022-11-20T08:36:36.871Z,4.85
2022-11-20T08:39:04.018Z,6.03
2022-11-20T08:41:34.043Z,8.25
2022-11-20T08:44:01.459Z,6.03
2022-11-20T08:46:28.595Z,5.82
2022-11-20T08:48:55.883Z,4.00
2022-11-20T08:51:23.099Z,5.15
2022-11-20T08:53:50.302Z,4.22
2022-11-20T08:56:17.780Z,3.88
2022-11-20T08:59:10.307Z,6.72
2022-11-20T09:01:32.147Z,4.22
2022-11-20T09:04:00.711Z,7.70
2022-11-20T09:06:28.048Z,4.50
2022-11-20T09:08:55.278Z,4.85
2022-11-20T09:11:22.499Z,9.70
2022-11-20T09:13:49.711Z,10.63
2022-11-20T09:16:16.949Z,11.85
2022-11-20T09:18:44.147Z,8.85
2022-11-20T09:21:11.772Z,7.78
2022-11-20T09:23:39.008Z,10.55
2022-11-20T09:26:06.278Z,13.55
2022-11-20T09:28:33.468Z,18.55
2022-11-20T09:31:00.682Z,17.65
2022-11-20T09:33:27.843Z,15.18
2022-11-20T09:35:55.039Z,16.30
2022-11-20T09:38:22.195Z,19.55
2022-11-20T09:40:49.527Z,22.52
2022-11-20T09:43:16.683Z,17.98
2022-11-20T09:45:43.913Z,18.50
2022-11-20T09:48:11.119Z,20.70
2022-11-20T09:50:38.339Z,10.52
2022-11-20T09:53:05.487Z,21.58
2022-11-20T09:55:32.709Z,26.88
2022-11-20T09:57:59.883Z,15.15
2022-11-20T10:00:27.115Z,16.15
2022-11-20T10:02:54.396Z,23.08
2022-11-20T10:05:21.655Z,12.07
2022-11-20T10:07:48.835Z,20.63
2022-11-20T10:10:16.083Z,39.55
2022-11-20T10:12:43.230Z,38.28
2022-11-20T10:15:10.446Z,32.85
2022-11-20T10:17:37.660Z,24.35
2022-11-20T10:20:04.928Z,30.58
2022-11-20T10:22:32.155Z,25.77
2022-11-20T10:24:59.400Z,31.40
2022-11-20T10:27:26.601Z,18.58
2022-11-20T10:29:53.807Z,28.85
2022-11-20T10:32:21.039Z,30.13
2022-11-20T10:34:48.561Z,24.40
2022-11-20T10:37:15.708Z,20.13
2022-11-20T10:39:42.948Z,30.67
2022-11-20T10:42:10.163Z,27.15
2022-11-20T10:44:56.778Z,42.63
2022-11-20T10:47:24.497Z,24.05
2022-11-20T10:49:51.791Z,23.25
2022-11-20T10:52:19.081Z,23.05
2022-11-20T10:54:46.872Z,18.35
2022-11-20T10:57:14.267Z,35.10
2022-11-20T10:59:41.460Z,32.45
2022-11-20T11:02:08.767Z,37.03
2022-11-20T11:04:35.931Z,39.65
2022-11-20T11:07:03.268Z,36.38
2022-11-20T11:09:30.424Z,33.17
2022-11-20T11:11:59.089Z,35.35
2022-11-20T11:14:28.075Z,25.58
2022-11-20T11:16:55.321Z,34.00
2022-11-20T11:19:22.786Z,32.60
2022-11-20T11:21:55.107Z,26.13
2022-11-20T11:24:41.186Z,22.55
2022-11-20T11:27:13.725Z,52.20
2022-11-20T11:29:43.959Z,54.10
2022-11-20T11:32:11.199Z,39.95
2022-11-20T11:34:38.363Z,30.85
2022-11-20T11:37:05.729Z,22.15
2022-11-20T11:39:32.958Z,25.67
2022-11-20T11:42:00.266Z,36.78
2022-11-20T11:44:46.352Z,37.40
2022-11-20T11:47:13.728Z,26.13
2022-11-20T11:49:41.402Z,53.13
2022-11-20T11:52:08.665Z,33.70
2022-11-20T11:54:35.844Z,25.05
2022-11-20T11:57:03.119Z,39.33
2022-11-20T11:59:30.280Z,38.10
2022-11-20T12:01:57.621Z,29.80
2022-11-20T12:04:24.836Z,27.40
2022-11-20T12:06:52.105Z,38.08
2022-11-20T12:09:19.313Z,40.53
2022-11-20T12:11:46.653Z,34.28
2022-11-20T12:14:13.949Z,42.80
2022-11-20T12:16:41.202Z,38.38
2022-11-20T12:19:08.375Z,36.67
2022-11-20T12:21:35.683Z,43.80
2022-11-20T12:24:02.891Z,37.08
2022-11-20T12:26:30.165Z,32.15
2022-11-20T12:28:57.366Z,38.28
2022-11-20T12:31:24.642Z,31.33
2022-11-20T12:33:51.862Z,40.55
2022-11-20T12:36:19.103Z,44.20
2022-11-20T12:38:46.276Z,31.77
2022-11-20T12:41:13.492Z,32.30
2022-11-20T12:43:59.580Z,30.33
2022-11-20T12:46:26.813Z,34.13
2022-11-20T12:48:54.101Z,31.45
2022-11-20T12:51:21.367Z,32.05
2022-11-20T12:53:48.529Z,27.20
2022-11-20T12:56:15.780Z,35.13
2022-11-20T12:58:44.163Z,27.02
2022-11-20T13:01:31.362Z,29.95
2022-11-20T13:03:58.607Z,30.30
2022-11-20T13:06:25.765Z,41.15
2022-11-20T13:08:52.991Z,40.45
2022-11-20T13:11:20.235Z,32.03
2022-11-20T13:13:47.411Z,43.10
2022-11-20T13:16:14.832Z,29.45
2022-11-20T13:18:43.541Z,29.92
2022-11-20T13:21:10.725Z,42.55
2022-11-20T13:23:37.987Z,32.67
2022-11-20T13:26:05.154Z,24.92
2022-11-20T13:28:32.461Z,27.02
2022-11-20T13:30:59.719Z,22.33
2022-11-20T13:33:27.054Z,36.58
2022-11-20T13:35:54.201Z,26.42
2022-11-20T13:38:21.470Z,24.75
2022-11-20T13:40:48.774Z,22.52
2022-11-20T13:43:16.135Z,38.47
2022-11-20T13:45:43.323Z,27.27
2022-11-20T13:48:10.633Z,30.40
2022-11-20T13:50:37.841Z,26.27
2022-11-20T13:53:05.054Z,36.28
2022-11-20T13:55:32.254Z,25.80
2022-11-20T13:57:59.519Z,23.58
2022-11-20T14:00:26.759Z,22.27
2022-11-20T14:02:54.011Z,25.73
2022-11-20T14:05:21.251Z,27.25
2022-11-20T14:07:48.466Z,30.45
2022-11-20T14:10:15.641Z,21.50
2022-11-20T14:12:42.864Z,28.80
2022-11-20T14:15:10.040Z,35.05
2022-11-20T14:17:37.781Z,23.50
2022-11-20T14:20:04.935Z,27.77
2022-11-20T14:22:32.167Z,22.67
2022-11-20T14:24:59.463Z,33.65
2022-11-20T14:27:26.679Z,32.78
2022-11-20T14:29:53.995Z,31.30
2022-11-20T14:32:21.268Z,29.33
2022-11-20T14:34:48.500Z,35.28
2022-11-20T14:37:17.202Z,31.75
2022-11-20T14:39:44.537Z,26.90
2022-11-20T14:42:11.824Z,22.88
2022-11-20T14:44:39.053Z,43.97
2022-11-20T14:47:06.387Z,30.02
2022-11-20T14:49:33.605Z,24.65
2022-11-20T14:52:00.896Z,21.77
2022-11-20T14:54:29.375Z,34.58
2022-11-20T14:56:57.124Z,29.00
2022-11-20T14:59:24.331Z,27.42
2022-11-20T15:01:51.544Z,24.75
2022-11-20T15:04:18.867Z,14.95
2022-11-20T15:06:46.068Z,25.02
2022-11-20T15:09:13.258Z,29.08
2022-11-20T15:11:40.471Z,29.55
2022-11-20T15:14:07.600Z,27.98
2022-11-20T15:16:34.965Z,53.30
2022-11-20T15:19:02.185Z,39.20
2022-11-20T15:21:30.348Z,27.90
2022-11-20T15:23:57.544Z,26.55
2022-11-20T15:26:25.311Z,20.10
2022-11-20T15:28:52.469Z,29.20
2022-11-20T15:31:19.719Z,35.88
2022-11-20T15:33:46.937Z,22.77
2022-11-20T15:36:14.287Z,34.80
2022-11-20T15:38:41.404Z,27.08
2022-11-20T15:41:08.634Z,38.40
2022-11-20T15:43:35.821Z,36.15
2022-11-20T15:46:03.036Z,23.95
2022-11-20T15:48:30.207Z,29.55
2022-11-20T15:50:57.451Z,25.15
2022-11-20T15:53:24.592Z,20.80
2022-11-20T15:55:51.984Z,39.78
2022-11-20T15:58:19.143Z,23.95
2022-11-20T16:00:46.424Z,30.15
2022-11-20T16:03:13.661Z,23.65
2022-11-20T16:05:40.961Z,33.22
2022-11-20T16:08:11.483Z,33.05
2022-11-20T16:10:39.308Z,30.02
2022-11-20T16:13:25.246Z,23.42
2022-11-20T16:15:53.462Z,24.70
2022-11-20T16:18:20.692Z,22.45
2022-11-20T16:20:47.980Z,29.02
2022-11-20T16:23:16.456Z,32.28
2022-11-20T16:25:43.700Z,30.20
2022-11-20T16:28:15.998Z,22.80
2022-11-20T16:30:46.053Z,21.77
2022-11-20T16:33:13.304Z,37.00
2022-11-20T16:35:40.556Z,22.23
2022-11-20T16:38:07.748Z,29.00
2022-11-20T16:40:35.025Z,26.40
2022-11-20T16:43:02.166Z,28.52
2022-11-20T16:45:33.766Z,33.75
2022-11-20T16:48:01.294Z,27.45
2022-11-20T16:50:28.458Z,31.45
2022-11-20T16:52:55.693Z,27.58
2022-11-20T16:55:22.839Z,31.40
2022-11-20T16:57:49.996Z,24.85
2022-11-20T17:00:17.274Z,25.88
2022-11-20T17:02:44.525Z,19.25
2022-11-20T17:05:11.684Z,27.92
2022-11-20T17:07:39.415Z,23.55
2022-11-20T17:10:06.665Z,24.15
2022-11-20T17:12:33.879Z,23.45
2022-11-20T17:15:01.095Z,28.55
2022-11-20T17:17:28.295Z,26.10
2022-11-20T17:19:55.424Z,30.67
2022-11-20T17:22:22.661Z,26.17
2022-11-20T17:24:49.791Z,23.08
2022-11-20T17:27:17.244Z,33.33
2022-11-20T17:29:44.399Z,31.88
2022-11-20T17:32:11.611Z,26.00
2022-11-20T17:34:38.777Z,29.45
2022-11-20T17:37:06.138Z,21.95
2022-11-20T17:39:33.306Z,26.10
2022-11-20T17:42:19.311Z,28.80
2022-11-20T17:44:47.425Z,23.67
2022-11-20T17:47:14.628Z,23.60
2022-11-20T17:49:42.021Z,22.48
2022-11-20T17:52:09.192Z,19.88
2022-11-20T17:54:36.375Z,20.02
2022-11-20T17:57:22.287Z,16.23
2022-11-20T17:59:49.484Z,21.50
2022-11-20T18:02:16.838Z,15.82
2022-11-20T18:04:44.968Z,23.50
2022-11-20T18:07:12.539Z,20.58
2022-11-20T18:09:39.780Z,15.88
2022-11-20T18:12:07.089Z,20.45
2022-11-20T18:14:36.252Z,19.95
2022-11-20T18:17:03.534Z,22.27
2022-11-20T18:19:32.706Z,21.02
2022-11-20T18:22:01.814Z,19.35
2022-11-20T18:24:29.196Z,16.48
2022-11-20T18:26:57.696Z,21.75
2022-11-20T18:29:25.187Z,14.35
2022-11-20T18:31:52.570Z,15.63
2022-11-20T18:34:19.928Z,11.85
2022-11-20T18:36:47.102Z,15.75
2022-11-20T18:39:14.377Z,9.90
2022-11-20T18:42:00.479Z,12.23
2022-11-20T18:44:46.630Z,7.13
2022-11-20T18:47:15.116Z,12.98
2022-11-20T18:49:42.465Z,12.20
2022-11-20T18:52:09.689Z,12.13
2022-11-20T18:54:37.157Z,16.23
2022-11-20T18:57:04.371Z,14.70
2022-11-20T18:59:31.999Z,11.65
2022-11-20T19:01:59.554Z,10.18
2022-11-20T19:04:27.065Z,16.65
2022-11-20T19:06:56.315Z,15.30
2022-11-20T19:09:24.135Z,13.05
2022-11-20T19:11:51.840Z,11.80
2022-11-20T19:14:19.068Z,13.32
2022-11-20T19:16:46.573Z,11.43
2022-11-20T19:19:14.067Z,15.13
2022-11-20T19:21:42.243Z,13.68
2022-11-20T19:24:09.502Z,13.25
2022-11-20T19:26:36.770Z,12.30
2022-11-20T19:29:04.396Z,12.57
2022-11-20T19:31:31.605Z,13.68
2022-11-20T19:33:58.761Z,16.27
2022-11-20T19:36:26.099Z,15.07
2022-11-20T19:38:53.317Z,15.38
2022-11-20T19:41:20.586Z,14.18
2022-11-20T19:43:50.815Z,13.65
2022-11-20T19:46:18.648Z,18.23
2022-11-20T19:48:45.831Z,20.15
2022-11-20T19:51:13.081Z,20.88
2022-11-20T19:53:40.300Z,13.63
2022-11-20T19:56:08.379Z,14.18
2022-11-20T19:58:35.624Z,20.27
2022-11-20T20:01:03.291Z,10.25
2022-11-20T20:03:30.544Z,22.42
2022-11-20T20:05:57.750Z,17.50
2022-11-20T20:08:24.940Z,9.13
2022-11-20T20:10:56.653Z,12.20
2022-11-20T20:13:26.612Z,15.85
2022-11-20T20:15:53.822Z,12.02
2022-11-20T20:18:21.060Z,15.40
2022-11-20T20:20:48.241Z,18.25
2022-11-20T20:23:15.478Z,14.45
2022-11-20T20:25:42.684Z,18.63
2022-11-20T20:28:09.926Z,12.93
2022-11-20T20:30:37.141Z,14.45
2022-11-20T20:33:04.738Z,14.13
2022-11-20T20:35:31.883Z,7.53
2022-11-20T20:37:59.141Z,12.30
2022-11-20T20:40:26.387Z,19.02
2022-11-20T20:42:53.747Z,12.48
2022-11-20T20:45:21.019Z,11.27
2022-11-20T20:47:48.276Z,21.48
2022-11-20T20:50:15.429Z,15.23
2022-11-20T20:52:42.662Z,14.50
2022-11-20T20:55:11.057Z,12.90
2022-11-20T20:57:38.383Z,20.02
2022-11-20T21:00:05.745Z,17.98
2022-11-20T21:02:32.975Z,9.23
2022-11-20T21:05:00.222Z,12.38
2022-11-20T21:07:27.506Z,24.67
2022-11-20T21:09:54.699Z,11.95
2022-11-20T21:12:21.934Z,25.42
2022-11-20T21:14:49.116Z,12.60
2022-11-20T21:17:16.348Z,20.77
2022-11-20T21:19:43.650Z,10.80
2022-11-20T21:22:10.811Z,15.77
2022-11-20T21:24:37.976Z,15.90
2022-11-20T21:27:05.235Z,8.20
2022-11-20T21:29:32.420Z,13.18
2022-11-20T21:31:59.731Z,16.13
2022-11-20T21:34:27.281Z,18.50
2022-11-20T21:36:54.575Z,8.95
2022-11-20T21:39:22.084Z,20.65
2022-11-20T21:41:49.324Z,10.40
2022-11-20T21:44:30.883Z,12.63
2022-11-20T21:46:58.796Z,11.48
2022-11-20T21:49:26.269Z,13.30
2022-11-20T21:51:53.988Z,21.85
2022-11-20T21:54:21.396Z,16.40
2022-11-20T21:56:48.760Z,11.73
2022-11-20T21:59:15.998Z,22.08
2022-11-20T22:01:43.355Z,15.05
2022-11-20T22:04:10.545Z,11.60
2022-11-20T22:06:37.753Z,10.90
2022-11-20T22:09:04.949Z,22.05
2022-11-20T22:11:32.136Z,12.02
2022-11-20T22:14:18.143Z,15.82
2022-11-20T22:16:45.446Z,15.50
2022-11-20T22:19:12.600Z,14.30
2022-11-20T22:21:40.049Z,8.38
2022-11-20T22:24:07.288Z,16.90
2022-11-20T22:26:39.663Z,20.20
2022-11-20T22:29:07.636Z,15.77
2022-11-20T22:31:34.773Z,18.98
2022-11-20T22:34:01.948Z,23.10
2022-11-20T22:36:29.157Z,14.45
2022-11-20T22:38:56.379Z,16.58
2022-11-20T22:41:25.041Z,16.45
2022-11-20T22:43:52.191Z,13.65
2022-11-20T22:46:19.452Z,6.05
2022-11-20T22:48:46.608Z,12.07
2022-11-20T22:51:13.951Z,11.30
2022-11-20T22:53:41.132Z,10.25
2022-11-20T22:56:08.426Z,15.38
2022-11-20T22:58:35.689Z,20.83
2022-11-20T23:01:02.944Z,21.00
2022-11-20T23:03:30.142Z,7.70
2022-11-20T23:05:57.383Z,18.75
2022-11-20T23:08:24.578Z,12.95
2022-11-20T23:10:51.780Z,21.15
2022-11-20T23:13:19.033Z,19.10
2022-11-20T23:15:46.200Z,16.75
2022-11-20T23:18:13.357Z,16.80
2022-11-20T23:20:40.658Z,13.05
2022-11-20T23:23:07.824Z,17.30
2022-11-20T23:25:35.006Z,15.27
2022-11-20T23:28:02.205Z,23.80
2022-11-20T23:30:29.392Z,20.50
2022-11-20T23:32:56.576Z,19.10
2022-11-20T23:35:23.983Z,12.48
2022-11-20T23:37:51.130Z,14.77
2022-11-20T23:40:18.380Z,19.17
2022-11-20T23:43:04.388Z,16.98
2022-11-20T23:45:31.589Z,21.85
2022-11-20T23:47:58.772Z,18.55
2022-11-20T23:50:26.065Z,19.33
2022-11-20T23:52:53.191Z,24.83
2022-11-20T23:55:20.409Z,14.50
2022-11-20T23:57:47.631Z,23.83
